| time (UTC) | temp C | wind direction | speed KPH | gust KPH | rain 1hr cm | rain 24hr cm | rain mn cm | humidity % | barometer mb |
| 20260510044820 | 23 | 133 | 6.4 | 11.3 | 0.00 | 0.10 | 0.10 | 100 | 1054.2 |
| 20260510043820 | 24 | 127 | 4.8 | 11.3 | 0.00 | 0.10 | 0.10 | 100 | 1054.2 |
| 20260510042820 | 24 | 141 | 8.0 | 11.3 | 0.00 | 0.10 | 0.10 | 100 | 1054.1 |
| 20260510041821 | 25 | 138 | 9.7 | 16.1 | 0.00 | 0.10 | 0.10 | 100 | 1054.0 |
| 20260510040820 | 25 | 135 | 8.0 | 11.3 | 0.00 | 0.10 | 0.10 | 100 | 1054.0 |
| 20260510035820 | 25 | 137 | 6.4 | 11.3 | 0.00 | 0.10 | 0.10 | 100 | 1053.8 |
| 20260510034822 | 25 | 136 | 8.0 | 11.3 | 0.00 | 0.10 | 0.10 | 100 | 1053.8 |
| 20260510033919 | 25 | 141 | 3.2 | 8.0 | 0.00 | 0.10 | 0.10 | 100 | 1053.8 |
| 20260510032920 | 26 | 130 | 3.2 | 8.0 | 0.00 | 0.10 | 0.10 | 100 | 1053.6 |
| 20260510031919 | 26 | 137 | 6.4 | 8.0 | 0.00 | 0.10 | 0.10 | 100 | 1053.6 |
| 20260510030920 | 26 | 149 | 6.4 | 11.3 | 0.00 | 0.10 | 0.10 | 100 | 1053.5 |
| 20260510025919 | 26 | 148 | 1.6 | 4.8 | 0.00 | 0.10 | 0.10 | 100 | 1053.2 |
| 20260510024922 | 26 | 80 | 4.8 | 8.0 | 0.00 | 0.10 | 0.10 | 100 | 1053.0 |
| 20260510024020 | 26 | 87 | 1.6 | 6.4 | 0.00 | 0.10 | 0.10 | 100 | 1052.9 |
| 20260510022120 | 26 | 88 | 3.2 | 4.8 | 0.00 | 0.10 | 0.10 | 100 | 1052.7 |
| 20260510021219 | 27 | 122 | 3.2 | 4.8 | 0.00 | 0.10 | 0.10 | 100 | 1052.7 |
| 20260510020222 | 27 | 138 | 3.2 | 6.4 | 0.00 | 0.10 | 0.10 | 100 | 1052.5 |
| 20260510015220 | 27 | 115 | 1.6 | 6.4 | 0.00 | 0.10 | 0.10 | 100 | 1052.5 |
| 20260510014319 | 27 | 86 | 1.6 | 4.8 | 0.00 | 0.10 | 0.10 | 100 | 1052.3 |
| 20260510013322 | 28 | 139 | 9.7 | 12.9 | 0.00 | 0.10 | 0.10 | 100 | 1052.2 |
| 20260510012322 | 28 | 138 | 6.4 | 9.7 | 0.00 | 0.10 | 0.10 | 100 | 1052.0 |
| 20260510011320 | 28 | 138 | 8.0 | 11.3 | 0.00 | 0.10 | 0.10 | 100 | 1052.1 |
| 20260510005320 | 28 | 136 | 12.9 | 16.1 | 0.00 | 0.10 | 0.10 | 100 | 1052.1 |
| 20260510003421 | 29 | 137 | 6.4 | 9.7 | 0.00 | 0.10 | 0.10 | 100 | 1051.9 |
| 20260510002419 | 29 | 129 | 4.8 | 12.9 | 0.00 | 0.10 | 0.10 | 100 | 1051.9 |
| 20260510001420 | 29 | 138 | 4.8 | 12.9 | 0.00 | 0.10 | 0.10 | 100 | 1051.7 |
| 20260510000420 | 30 | 144 | 6.4 | 12.9 | 0.00 | 0.10 | 0.10 | 100 | 1051.6 |
| 20260509235519 | 29 | 139 | 8.0 | 11.3 | 0.00 | 0.10 | 0.10 | 100 | 1051.6 |
| 20260509233520 | 30 | 136 | 9.7 | 11.3 | 0.00 | 0.10 | 0.10 | 100 | 1051.3 |
| 20260509232519 | 30 | 131 | 3.2 | 8.0 | 0.00 | 0.10 | 0.10 | 100 | 1051.4 |
| 20260509231519 | 30 | 141 | 6.4 | 8.0 | 0.00 | 0.10 | 0.10 | 100 | 1051.3 |
| 20260509230521 | 30 | 137 | 9.7 | 12.9 | 0.00 | 0.10 | 0.10 | 100 | 1051.3 |
| 20260509225520 | 30 | 145 | 4.8 | 8.0 | 0.00 | 0.10 | 0.10 | 100 | 1051.4 |
| 20260509224520 | 29 | 141 | 8.0 | 12.9 | 0.00 | 0.10 | 0.10 | 100 | 1051.4 |
| 20260509223521 | 29 | 103 | 3.2 | 6.4 | 0.00 | 0.10 | 0.10 | 100 | 1051.4 |
| 20260509222619 | 30 | 136 | 9.7 | 11.3 | 0.00 | 0.10 | 0.10 | 100 | 1051.3 |
| 20260509221619 | 30 | 144 | 4.8 | 8.0 | 0.00 | 0.10 | 0.10 | 100 | 1051.3 |
| 20260509220619 | 30 | 140 | 6.4 | 8.0 | 0.00 | 0.10 | 0.10 | 100 | 1051.1 |
| 20260509215619 | 29 | 135 | 6.4 | 8.0 | 0.00 | 0.10 | 0.10 | 100 | 1051.3 |
| 20260509214619 | 29 | 136 | 4.8 | 6.4 | 0.00 | 0.10 | 0.10 | 100 | 1051.4 |
| 20260509213620 | 28 | 197 | 0.0 | 6.4 | 0.00 | 0.10 | 0.10 | 100 | 1051.8 |
| 20260509212719 | 28 | 30 | 0.0 | 3.2 | 0.00 | 0.10 | 0.10 | 100 | 1051.9 |
| 20260509211720 | 28 | 107 | 3.2 | 8.0 | 0.00 | 0.10 | 0.10 | 100 | 1052.1 |
| 20260509210721 | 27 | 129 | 0.0 | 3.2 | 0.00 | 0.10 | 0.10 | 100 | 1051.9 |
| 20260509205720 | 27 | 3 | 1.6 | 6.4 | 0.08 | 0.10 | 0.10 | 100 | 1052.0 |
| 20260509203820 | 26 | 246 | 3.2 | 8.0 | 0.10 | 0.10 | 0.10 | 100 | 1052.1 |
| 20260509202819 | 26 | 20 | 6.4 | 19.3 | 0.10 | 0.10 | 0.10 | 100 | 1051.9 |
| 20260509201820 | 24 | 91 | 1.6 | 8.0 | 0.10 | 0.10 | 0.10 | 100 | 1052.4 |
| 20260509195820 | 25 | 112 | 35.4 | 46.7 | 0.05 | 0.05 | 0.03 | 100 | 1052.9 |
| 20260509194919 | 29 | 109 | 27.4 | 35.4 | 0.00 | 0.00 | 0.00 | 100 | 1052.4 |
| 20260509193920 | 32 | 140 | 9.7 | 14.5 | 0.00 | 0.00 | 0.00 | 100 | 1052.6 |
| 20260509192918 | 32 | 288 | 6.4 | 11.3 | 0.00 | 0.00 | 0.00 | 100 | 1052.5 |
| 20260509191921 | 32 | 284 | 1.6 | 3.2 | 0.00 | 0.00 | 0.00 | 100 | 1052.7 |
| 20260509190935 | 31 | 57 | 3.2 | 8.0 | 0.00 | 0.00 | 0.00 | 100 | 1052.8 |
| 20260509190020 | 31 | 130 | 3.2 | 8.0 | 0.00 | 0.00 | 0.00 | 100 | 1052.9 |
| 20260509185018 | 31 | 292 | 4.8 | 8.0 | 0.00 | 0.00 | 0.00 | 100 | 1053.0 |
| 20260509184018 | 31 | 299 | 3.2 | 9.7 | 0.00 | 0.00 | 0.00 | 100 | 1053.2 |
| 20260509183020 | 31 | 20 | 0.0 | 3.2 | 0.00 | 0.00 | 0.00 | 100 | 1053.5 |
| 20260509182020 | 30 | 248 | 4.8 | 12.9 | 0.00 | 0.00 | 0.00 | 100 | 1053.5 |
| 20260509181020 | 30 | 191 | 3.2 | 8.0 | 0.00 | 0.00 | 0.00 | 100 | 1053.8 |
| 20260509175019 | 30 | 75 | 1.6 | 3.2 | 0.00 | 0.00 | 0.00 | 100 | 1053.8 |
| 20260509174019 | 29 | 240 | 3.2 | 6.4 | 0.00 | 0.00 | 0.00 | 100 | 1054.1 |
| 20260509173020 | 29 | 36 | 0.0 | 6.4 | 0.00 | 0.00 | 0.00 | 100 | 1054.5 |
| 20260509172018 | 28 | 7 | 0.0 | 3.2 | 0.00 | 0.00 | 0.00 | 100 | 1054.4 |
| 20260509171020 | 28 | 188 | 3.2 | 4.8 | 0.00 | 0.00 | 0.00 | 100 | 1054.2 |
| 20260509170018 | 27 | 262 | 9.7 | 14.5 | 0.00 | 0.00 | 0.00 | 100 | 1054.2 |
| 20260509165020 | 27 | 246 | 3.2 | 8.0 | 0.00 | 0.00 | 0.00 | 100 | 1054.5 |
| 20260509164119 | 27 | 256 | 4.8 | 8.0 | 0.00 | 0.00 | 0.00 | 100 | 1054.5 |
| 20260509163119 | 28 | 245 | 4.8 | 8.0 | 0.00 | 0.00 | 0.00 | 100 | 1054.5 |
| 20260509162118 | 28 | 205 | 0.0 | 3.2 | 0.00 | 0.00 | 0.00 | 100 | 1054.6 |
| 20260509161218 | 27 | 103 | 0.0 | 3.2 | 0.00 | 0.00 | 0.00 | 100 | 1054.3 |
| 20260509155219 | 26 | 257 | 4.8 | 8.0 | 0.00 | 0.00 | 0.00 | 100 | 1054.3 |
| 20260509152221 | 24 | 248 | 4.8 | 8.0 | 0.00 | 0.00 | 0.00 | 100 | 1054.6 |
| 20260509151218 | 23 | 248 | 1.6 | 8.0 | 0.00 | 0.00 | 0.00 | 100 | 1054.5 |
| 20260509150218 | 23 | 96 | 3.2 | 9.7 | 0.00 | 0.00 | 0.00 | 100 | 1054.4 |
| 20260509142219 | 23 | 176 | 3.2 | 9.7 | 0.00 | 0.00 | 0.00 | 100 | 1054.1 |
| 20260509141317 | 23 | 89 | 1.6 | 4.8 | 0.00 | 0.00 | 0.00 | 100 | 1053.6 |
| 20260509135418 | 22 | 154 | 1.6 | 3.2 | 0.00 | 0.00 | 0.00 | 100 | 1054.0 |
| 20260509134419 | 22 | 334 | 0.0 | 3.2 | 0.00 | 0.00 | 0.00 | 100 | 1054.1 |
| 20260509133419 | 22 | 12 | 4.8 | 6.4 | 0.00 | 0.00 | 0.00 | 100 | 1054.5 |
| 20260509132518 | 22 | 359 | 1.6 | 6.4 | 0.00 | 0.00 | 0.00 | 100 | 1054.3 |
| 20260509131518 | 23 | 58 | 1.6 | 6.4 | 0.00 | 0.00 | 0.00 | 100 | 1054.3 |
| 20260509125618 | 22 | 93 | 1.6 | 9.7 | 0.00 | 0.00 | 0.00 | 100 | 1053.8 |
| 20260509124618 | 22 | 318 | 0.0 | 1.6 | 0.00 | 0.00 | 0.00 | 100 | 1053.6 |
| 20260509123619 | 22 | 124 | 0.0 | 0.0 | 0.00 | 0.00 | 0.00 | 100 | 1053.5 |
| 20260509121718 | 22 | 135 | 6.4 | 8.0 | 0.00 | 0.00 | 0.00 | 100 | 1053.7 |
| 20260509120718 | 22 | 112 | 0.0 | 0.0 | 0.00 | 0.00 | 0.00 | 100 | 1054.0 |
| 20260509115721 | 22 | 49 | 0.0 | 1.6 | 0.00 | 0.00 | 0.00 | 100 | 1054.0 |
| 20260509114718 | 22 | 73 | 0.0 | 4.8 | 0.00 | 0.00 | 0.00 | 100 | 1053.8 |
| 20260509113719 | 22 | 70 | 4.8 | 9.7 | 0.00 | 0.00 | 0.00 | 100 | 1054.3 |
| 20260509111719 | 22 | 131 | 4.8 | 6.4 | 0.00 | 0.00 | 0.00 | 100 | 1054.5 |
| 20260509110818 | 22 | 24 | 0.0 | 1.6 | 0.00 | 0.00 | 0.00 | 100 | 1054.5 |
| 20260509105818 | 22 | 22 | 1.6 | 3.2 | 0.00 | 0.00 | 0.00 | 100 | 1054.7 |
| 20260509103819 | 22 | 127 | 6.4 | 9.7 | 0.00 | 0.00 | 0.00 | 100 | 1054.9 |
| 20260509101819 | 22 | 96 | 9.7 | 12.9 | 0.00 | 0.00 | 0.00 | 100 | 1054.6 |
| 20260509100817 | 22 | 131 | 4.8 | 6.4 | 0.00 | 0.00 | 0.00 | 100 | 1054.0 |
| 20260509095817 | 22 | 131 | 3.2 | 6.4 | 0.00 | 0.00 | 0.00 | 100 | 1053.5 |
| 20260509094818 | 22 | 112 | 1.6 | 3.2 | 0.00 | 0.00 | 0.00 | 100 | 1053.6 |
| 20260509093818 | 22 | 135 | 3.2 | 4.8 | 0.00 | 0.00 | 0.00 | 100 | 1053.6 |
| 20260509090919 | 22 | 114 | 4.8 | 6.4 | 0.00 | 0.00 | 0.00 | 100 | 1053.3 |
| 20260509085919 | 22 | 135 | 6.4 | 6.4 | 0.00 | 0.00 | 0.00 | 100 | 1053.2 |
| 20260509084918 | 22 | 137 | 6.4 | 6.4 | 0.00 | 0.00 | 0.00 | 100 | 1053.3 |
| 20260509083017 | 22 | 128 | 6.4 | 8.0 | 0.00 | 0.00 | 0.00 | 100 | 1053.7 |
| 20260509082019 | 22 | 112 | 9.7 | 11.3 | 0.00 | 0.00 | 0.00 | 100 | 1054.0 |
| 20260509080119 | 22 | 112 | 9.7 | 11.3 | 0.00 | 0.00 | 0.00 | 100 | 1053.8 |
| 20260509075120 | 22 | 112 | 6.4 | 8.0 | 0.00 | 0.00 | 0.00 | 100 | 1053.6 |
| 20260509074118 | 22 | 141 | 4.8 | 6.4 | 0.00 | 0.00 | 0.00 | 100 | 1053.7 |
| 20260509072118 | 22 | 112 | 3.2 | 4.8 | 0.00 | 0.00 | 0.00 | 100 | 1053.8 |
| 20260509071217 | 22 | 225 | 0.0 | 0.0 | 0.00 | 0.00 | 0.00 | 100 | 1054.0 |
| 20260509070220 | 22 | 213 | 3.2 | 4.8 | 0.00 | 0.00 | 0.00 | 100 | 1054.0 |
| 20260509065219 | 22 | 157 | 0.0 | 0.0 | 0.00 | 0.00 | 0.00 | 100 | 1053.7 |
| 20260509064317 | 22 | 22 | 0.0 | 1.6 | 0.00 | 0.00 | 0.00 | 100 | 1053.5 |
| 20260509063417 | 22 | 112 | 1.6 | 3.2 | 0.00 | 0.00 | 0.00 | 100 | 1053.6 |
| 20260509062419 | 22 | 44 | 1.6 | 4.8 | 0.00 | 0.00 | 0.00 | 100 | 1053.8 |
| 20260509061517 | 22 | 328 | 1.6 | 4.8 | 0.00 | 0.00 | 0.00 | 100 | 1053.5 |
| 20260509055518 | 22 | 79 | 4.8 | 9.7 | 0.00 | 0.00 | 0.00 | 100 | 1053.3 |
| 20260509053517 | 22 | 127 | 4.8 | 14.5 | 0.00 | 0.00 | 0.00 | 100 | 1053.4 |
| 20260509052519 | 23 | 303 | 1.6 | 6.4 | 0.00 | 0.00 | 0.00 | 100 | 1053.1 |
| 20260509050639 | 23 | 152 | 1.6 | 6.4 | 0.00 | 0.00 | 0.00 | 100 | 1052.9 |
| 20260509045644 | 23 | 146 | 1.6 | 6.4 | 0.00 | 0.00 | 0.00 | 100 | 1052.9 |